Time;durP1;ratioP1;P1;durP2;ratioP2;P2;SDS_P1;SDS_P2;PMS_P1;PMS_P2;Temp;Humidity;BMP_temperature;BMP_pressure;BME280_temperature;BME280_humidity;BME280_pressure;Samples;Min_cycle;Max_cycle;Signal;HPM_P1;HPM_P2
2022/08/27 00:02:13;;;;;;;;;4.33;4.33;;;;;21.49;53.43;101202.22;5036467;28;45740;-63
2022/08/27 00:04:40;;;;;;;;;5.33;4.00;;;;;21.45;53.84;101209.06;5036700;28;45508;-63
2022/08/27 00:07:05;;;;;;;;;5.00;4.00;;;;;21.44;53.83;101193.88;5036886;28;45281;-63
2022/08/27 00:09:31;;;;;;;;;3.00;3.00;;;;;21.29;53.74;101206.72;5036947;28;45470;-62
2022/08/27 00:11:57;;;;;;;;;3.00;3.00;;;;;21.14;54.18;101179.81;5036414;28;47383;-62
2022/08/27 00:14:24;;;;;;;;;5.67;4.00;;;;;21.28;53.74;101202.34;5052228;28;45415;-63
2022/08/27 00:16:49;;;;;;;;;3.67;3.67;;;;;21.28;54.00;101194.25;5037058;28;45423;-62
2022/08/27 00:19:15;;;;;;;;;3.67;3.67;;;;;21.18;54.15;101186.47;5052663;28;45231;-63
2022/08/27 00:21:41;;;;;;;;;5.00;3.00;;;;;21.32;53.73;101211.72;5036500;28;46358;-63
2022/08/27 00:24:06;;;;;;;;;4.00;4.00;;;;;21.34;53.72;101206.94;5036698;28;45204;-62
2022/08/27 00:26:32;;;;;;;;;4.00;4.00;;;;;21.38;53.81;101202.78;5036862;28;45249;-63
2022/08/27 00:28:57;;;;;;;;;3.00;3.00;;;;;21.41;53.59;101196.13;5052342;28;45493;-65
2022/08/27 00:31:22;;;;;;;;;3.00;3.00;;;;;21.30;53.89;101173.25;5036244;28;48101;-62
2022/08/27 00:33:48;;;;;;;;;3.67;3.67;;;;;21.45;53.74;101198.25;5036310;28;45524;-61
2022/08/27 00:36:13;;;;;;;;;4.00;2.67;;;;;21.39;53.66;101193.63;5036774;28;45173;-63
2022/08/27 00:38:40;;;;;;;;;6.00;6.00;;;;;21.24;54.18;101190.28;5036832;28;45274;-63
2022/08/27 00:41:07;;;;;;;;;4.00;2.00;;;;;21.12;54.48;101183.75;5036564;28;47391;-63
2022/08/27 00:43:56;;;;;;;;;4.00;4.00;;;;;20.52;54.70;101109.69;5036600;28;45299;-63
2022/08/27 00:46:26;;;;;;;;;4.00;4.00;;;;;21.06;55.05;101203.50;5036761;28;45185;-63
2022/08/27 00:48:58;;;;;;;;;4.00;4.00;;;;;20.99;55.24;101205.31;5036479;28;45323;-61
2022/08/27 00:51:25;;;;;;;;;4.67;4.00;;;;;20.87;55.08;101195.09;5036175;28;47468;-64
2022/08/27 00:53:52;;;;;;;;;4.33;4.33;;;;;20.26;55.48;101104.97;5035978;28;46003;-62
2022/08/27 00:56:22;;;;;;;;;4.33;4.33;;;;;20.90;55.37;101191.97;5038459;28;45280;-63
2022/08/27 00:58:50;;;;;;;;;2.33;2.33;;;;;20.91;55.34;101190.94;5040106;28;45496;-63
2022/08/27 01:01:19;;;;;;;;;5.00;5.00;;;;;20.92;55.33;101195.31;5039594;28;46320;-63
2022/08/27 01:03:48;;;;;;;;;5.00;5.00;;;;;20.92;55.43;101195.31;5039565;28;45223;-61
2022/08/27 01:06:15;;;;;;;;;2.00;2.00;;;;;20.90;55.62;101200.09;5039418;28;45349;-62
2022/08/27 01:08:47;;;;;;;;;4.00;4.00;;;;;20.83;55.77;101198.41;5039561;28;45572;-63
2022/08/27 01:11:12;;;;;;;;;5.33;4.33;;;;;20.47;55.75;101128.38;5039021;28;46013;-62
2022/08/27 01:13:38;;;;;;;;;5.67;5.00;;;;;20.26;55.65;101108.50;5039313;28;45380;-62
2022/08/27 01:16:06;;;;;;;;;5.67;5.67;;;;;20.86;55.68;101214.22;5039435;28;45510;-63
2022/08/27 01:18:33;;;;;;;;;6.00;4.67;;;;;20.84;55.88;101205.47;5039672;28;45398;-63
2022/08/27 01:21:34;;;;;;;;;3.33;2.00;;;;;20.73;56.00;101204.16;5039163;28;46374;-62
2022/08/27 01:24:12;;;;;;;;;3.67;3.67;;;;;20.81;55.78;101195.88;5039242;28;45435;-62
2022/08/27 01:26:38;;;;;;;;;4.33;4.00;;;;;20.56;55.94;101170.38;5054779;28;45483;-62
2022/08/27 01:29:04;;;;;;;;;6.00;6.00;;;;;20.72;56.01;101201.66;5039442;28;45479;-62
2022/08/27 01:31:30;;;;;;;;;5.00;5.00;;;;;20.04;56.37;101088.00;5037285;28;47980;-62
2022/08/27 01:33:59;;;;;;;;;5.67;5.00;;;;;20.61;56.70;101193.06;5038815;28;45370;-63
2022/08/27 01:36:26;;;;;;;;;6.00;6.00;;;;;20.65;56.33;101201.63;5038983;28;45640;-62
2022/08/27 01:38:51;;;;;;;;;7.00;7.00;;;;;20.75;56.12;101193.16;5039308;28;45328;-62
2022/08/27 01:41:17;;;;;;;;;7.00;7.00;;;;;20.74;56.23;101195.00;5038596;28;47515;-63
2022/08/27 01:43:43;;;;;;;;;6.67;6.33;;;;;20.63;56.42;101185.63;5038742;28;45903;-63
2022/08/27 01:46:08;;;;;;;;;5.00;5.00;;;;;20.60;56.67;101183.28;5038900;28;45601;-62
2022/08/27 01:48:34;;;;;;;;;9.00;6.00;;;;;20.62;56.68;101186.66;5039071;28;45554;-62
2022/08/27 01:50:59;;;;;;;;;6.33;6.00;;;;;20.58;56.39;101171.84;5038637;28;46727;-62
2022/08/27 01:53:25;;;;;;;;;7.00;6.00;;;;;20.70;56.12;101182.94;5038987;28;45321;-62
2022/08/27 01:55:52;;;;;;;;;7.00;5.67;;;;;20.75;56.18;101169.66;5054285;28;45197;-62
2022/08/27 01:58:20;;;;;;;;;6.33;6.33;;;;;20.76;55.65;101165.09;5039075;28;45245;-62
2022/08/27 02:00:48;;;;;;;;;6.00;6.00;;;;;20.84;56.02;101173.03;5038971;28;45473;-61
2022/08/27 02:03:17;;;;;;;;;8.00;5.67;;;;;20.76;56.12;101171.31;5039173;28;45434;-63
2022/08/27 02:05:43;;;;;;;;;5.00;5.00;;;;;20.80;55.84;101175.28;5038568;28;45296;-63
2022/08/27 02:08:08;;;;;;;;;6.00;6.00;;;;;20.84;55.67;101168.47;5037589;28;45309;-62
2022/08/27 02:10:36;;;;;;;;;5.67;5.00;;;;;20.51;55.42;101108.84;5038176;28;54634;-62
2022/08/27 02:13:02;;;;;;;;;7.00;6.00;;;;;20.89;55.79;101182.22;5038596;28;45391;-62
2022/08/27 02:15:28;;;;;;;;;6.67;6.67;;;;;20.82;56.08;101180.50;5038748;28;45261;-62
2022/08/27 02:17:54;;;;;;;;;4.00;4.00;;;;;20.80;56.01;101188.78;5039344;28;45309;-62
2022/08/27 02:20:21;;;;;;;;;6.00;6.00;;;;;20.68;55.93;101165.25;5038665;28;46368;-61
2022/08/27 02:22:47;;;;;;;;;7.67;6.67;;;;;20.29;55.87;101097.28;5038637;28;45228;-63
2022/08/27 02:25:15;;;;;;;;;6.00;4.67;;;;;20.75;55.87;101171.53;5038539;28;45593;-61
2022/08/27 02:27:41;;;;;;;;;5.00;5.00;;;;;20.75;56.12;101180.47;5038769;28;45529;-63
2022/08/27 02:30:10;;;;;;;;;5.33;5.33;;;;;20.58;56.47;101169.16;5038097;28;46480;-62
2022/08/27 02:32:36;;;;;;;;;6.33;5.67;;;;;20.66;56.38;101181.69;5038083;28;45480;-61
2022/08/27 02:35:03;;;;;;;;;5.00;5.00;;;;;20.71;56.27;101184.59;5038287;28;45497;-61
2022/08/27 02:37:29;;;;;;;;;6.00;4.33;;;;;20.67;56.19;101183.34;5037039;28;45255;-62
2022/08/27 02:39:54;;;;;;;;;5.00;5.00;;;;;20.69;56.41;101183.97;5037996;28;46177;-62
2022/08/27 02:42:19;;;;;;;;;3.67;3.67;;;;;20.60;56.81;101186.00;5038112;28;45474;-63
2022/08/27 02:44:46;;;;;;;;;3.33;3.33;;;;;19.58;56.78;101026.44;5036979;28;45370;-61
2022/08/27 02:47:11;;;;;;;;;5.33;5.00;;;;;20.39;57.29;101177.09;5038294;28;45448;-63
2022/08/27 02:49:37;;;;;;;;;5.33;5.00;;;;;20.36;57.25;101183.72;5037647;28;46554;-63
2022/08/27 02:52:03;;;;;;;;;3.33;3.33;;;;;20.21;57.73;101166.78;5038107;28;45345;-62
2022/08/27 02:54:28;;;;;;;;;3.67;3.67;;;;;20.29;57.78;101175.59;5038267;28;45468;-63
2022/08/27 02:56:54;;;;;;;;;3.33;3.33;;;;;20.32;57.57;101169.78;5038081;28;45507;-62
2022/08/27 02:59:21;;;;;;;;;4.33;4.33;;;;;20.35;57.43;101173.97;5037792;28;46590;-62
2022/08/27 03:01:46;;;;;;;;;4.33;3.67;;;;;20.34;57.68;101172.28;5053008;28;45498;-63
2022/08/27 03:04:12;;;;;;;;;3.33;3.33;;;;;20.23;57.58;101176.41;5037934;28;45198;-63
2022/08/27 03:06:38;;;;;;;;;3.67;3.67;;;;;20.26;57.68;101167.06;5036780;28;45539;-62
2022/08/27 03:09:04;;;;;;;;;5.00;4.00;;;;;20.23;57.73;101171.00;5037559;28;45708;-62
2022/08/27 03:11:30;;;;;;;;;5.67;4.00;;;;;20.23;57.69;101176.41;5037268;28;45308;-62
2022/08/27 03:13:56;;;;;;;;;3.00;3.00;;;;;20.30;57.57;101177.25;5037703;28;45486;-62
2022/08/27 03:16:22;;;;;;;;;4.00;4.00;;;;;20.28;57.83;101173.09;5037658;28;45550;-62
2022/08/27 03:18:47;;;;;;;;;3.67;3.67;;;;;20.10;57.77;101143.88;5035836;28;47784;-62
2022/08/27 03:21:18;;;;;;;;;4.00;4.00;;;;;20.24;57.91;101167.25;5037037;28;56342;-62
2022/08/27 03:23:45;;;;;;;;;3.33;3.33;;;;;20.25;57.65;101168.09;5037704;28;45449;-62
2022/08/27 03:26:11;;;;;;;;;3.67;3.67;;;;;20.24;57.57;101161.84;5037579;28;45262;-62
2022/08/27 03:28:37;;;;;;;;;5.33;5.33;;;;;20.30;57.60;101171.03;5037247;28;47621;-62
2022/08/27 03:31:05;;;;;;;;;3.00;3.00;;;;;20.24;57.42;101155.63;5037183;28;45575;-62
2022/08/27 03:33:34;;;;;;;;;4.67;4.67;;;;;20.18;57.76;101157.22;5035994;28;45328;-61
2022/08/27 03:35:59;;;;;;;;;5.33;5.33;;;;;19.20;57.80;100996.22;5037421;28;45423;-63
2022/08/27 03:38:26;;;;;;;;;3.00;2.67;;;;;20.02;58.15;101147.59;5037097;28;45557;-62
2022/08/27 03:40:52;;;;;;;;;5.67;4.33;;;;;20.03;57.87;101140.31;5036984;28;45297;-63
2022/08/27 03:43:19;;;;;;;;;5.00;5.00;;;;;20.06;58.14;101142.63;5037293;28;45300;-62
2022/08/27 03:45:45;;;;;;;;;3.00;3.00;;;;;20.16;58.03;101166.56;5037211;28;45403;-62
2022/08/27 03:48:12;;;;;;;;;3.00;3.00;;;;;20.19;57.84;101153.50;5036824;28;46720;-63
2022/08/27 03:50:40;;;;;;;;;4.00;4.00;;;;;20.06;58.25;101145.31;5036532;28;45460;-64
2022/08/27 03:53:05;;;;;;;;;5.67;3.00;;;;;20.07;58.22;101156.94;5036997;28;45613;-62
2022/08/27 03:55:30;;;;;;;;;4.00;4.00;;;;;20.02;58.39;101146.72;5037334;28;45446;-63
2022/08/27 03:57:56;;;;;;;;;6.67;4.67;;;;;20.01;58.17;101143.19;5035410;28;48666;-62
2022/08/27 04:00:23;;;;;;;;;5.33;4.00;;;;;19.96;58.17;101145.66;5036845;28;45301;-62
2022/08/27 04:02:49;;;;;;;;;5.00;4.00;;;;;19.92;58.32;101130.03;5036897;28;45366;-62
2022/08/27 04:05:15;;;;;;;;;3.00;2.67;;;;;19.98;58.47;101150.84;5036973;28;45387;-62
2022/08/27 04:07:41;;;;;;;;;4.67;3.00;;;;;19.99;58.26;101147.94;5036552;28;47260;-61
2022/08/27 04:10:08;;;;;;;;;4.00;4.00;;;;;19.88;58.60;101144.97;5036696;28;45474;-62
2022/08/27 04:12:35;;;;;;;;;3.00;3.00;;;;;19.95;58.58;101153.94;5036388;28;45224;-62
2022/08/27 04:15:00;;;;;;;;;3.33;3.33;;;;;19.77;58.39;101132.81;5036748;28;45343;-62
2022/08/27 04:17:26;;;;;;;;;4.00;4.00;;;;;19.94;58.54;101150.41;5036555;28;45962;-61
2022/08/27 04:19:52;;;;;;;;;4.00;4.00;;;;;19.94;58.39;101147.72;5036686;28;45276;-63
2022/08/27 04:22:17;;;;;;;;;5.00;5.00;;;;;19.97;58.64;101144.63;5036484;28;45336;-62
2022/08/27 04:24:43;;;;;;;;;4.67;4.00;;;;;19.43;58.30;101063.44;5034974;28;45466;-62
2022/08/27 04:27:10;;;;;;;;;6.67;5.00;;;;;20.01;58.20;101145.03;5036475;28;46577;-63
2022/08/27 04:29:36;;;;;;;;;4.00;3.00;;;;;20.03;57.84;101141.16;5035704;28;45182;-61
2022/08/27 04:32:02;;;;;;;;;4.00;3.00;;;;;19.87;57.96;101117.16;5036020;28;45225;-61
2022/08/27 04:34:27;;;;;;;;;2.00;2.00;;;;;20.01;58.18;101145.03;5036475;28;45198;-63
2022/08/27 04:36:56;;;;;;;;;7.00;3.67;;;;;19.98;58.27;101146.28;5036327;28;45958;-61
2022/08/27 04:39:22;;;;;;;;;4.67;4.00;;;;;19.92;58.49;101146.25;5036412;28;45320;-62
2022/08/27 04:41:50;;;;;;;;;3.00;3.00;;;;;19.87;58.35;101137.91;5036531;28;45402;-63
2022/08/27 04:44:15;;;;;;;;;2.33;2.33;;;;;19.87;58.70;101148.69;5036450;28;45344;-63
2022/08/27 04:46:40;;;;;;;;;4.00;3.00;;;;;19.87;58.51;101151.41;5035311;28;59034;-62
2022/08/27 04:49:11;;;;;;;;;4.00;4.00;;;;;19.87;58.48;101151.41;5035901;28;53624;-66
2022/08/27 04:51:38;;;;;;;;;3.33;2.33;;;;;19.78;58.52;101150.69;5036411;28;45311;-63
2022/08/27 04:54:05;;;;;;;;;4.67;4.67;;;;;19.63;58.71;101136.47;5036402;28;45481;-63
2022/08/27 04:56:31;;;;;;;;;5.00;4.00;;;;;19.62;58.78;101143.72;5036277;28;46684;-63
2022/08/27 04:58:57;;;;;;;;;5.00;3.33;;;;;19.36;58.35;101076.00;5036048;28;45367;-63
2022/08/27 05:01:26;;;;;;;;;4.00;4.00;;;;;19.84;58.22;101154.47;5035861;28;45493;-63
2022/08/27 05:03:53;;;;;;;;;3.67;3.00;;;;;19.69;58.63;101155.38;5036096;28;45524;-63
2022/08/27 05:06:19;;;;;;;;;6.00;6.00;;;;;19.45;59.47;101151.19;5035958;28;47156;-63
2022/08/27 05:08:44;;;;;;;;;3.00;3.00;;;;;19.48;59.44;101144.56;5036216;28;45576;-63
2022/08/27 05:11:13;;;;;;;;;5.00;5.00;;;;;19.39;59.42;101129.53;5035974;28;45261;-63
2022/08/27 05:13:43;;;;;;;;;4.00;4.00;;;;;19.40;59.09;101125.81;5036361;28;45442;-63
2022/08/27 05:16:18;;;;;;;;;6.00;5.00;;;;;18.86;59.05;101045.44;5035970;28;46511;-63
2022/08/27 05:18:44;;;;;;;;;6.00;6.00;;;;;19.61;59.02;101155.50;5035761;28;45327;-63
2022/08/27 05:21:25;;;;;;;;;4.00;4.00;;;;;19.46;58.82;101141.25;5036150;28;45494;-63
2022/08/27 05:23:51;;;;;;;;;6.00;4.67;;;;;19.60;58.93;101161.09;5051795;28;45402;-63
2022/08/27 05:26:17;;;;;;;;;5.00;5.00;;;;;19.55;58.64;101161.69;5035905;28;46349;-62
2022/08/27 05:28:43;;;;;;;;;4.00;4.00;;;;;19.51;58.99;101165.75;5034877;28;45488;-62
2022/08/27 05:31:11;;;;;;;;;4.67;4.67;;;;;19.50;59.14;101172.19;5035964;28;45413;-63
2022/08/27 05:33:38;;;;;;;;;3.00;3.00;;;;;19.54;58.69;101181.59;5035906;28;45417;-63
2022/08/27 05:36:04;;;;;;;;;3.00;3.00;;;;;19.60;58.75;101183.50;5035614;28;46995;-62
2022/08/27 05:38:30;;;;;;;;;3.33;3.33;;;;;19.49;58.67;101159.72;5035604;28;45338;-62
2022/08/27 05:41:04;;;;;;;;;5.67;5.00;;;;;19.52;58.82;101177.38;5035755;28;45300;-62
2022/08/27 05:43:30;;;;;;;;;4.00;4.00;;;;;19.33;59.21;101178.84;5039339;28;45309;-62
2022/08/27 05:45:56;;;;;;;;;6.00;5.00;;;;;19.43;59.27;101184.78;5038994;28;47513;-63
2022/08/27 05:48:21;;;;;;;;;5.33;4.33;;;;;19.54;58.92;101196.94;5038924;28;45327;-61
2022/08/27 05:50:47;;;;;;;;;3.00;3.00;;;;;19.60;58.71;101180.81;5038903;28;45474;-64
2022/08/27 05:53:12;;;;;;;;;7.00;5.00;;;;;19.63;58.21;101158.03;5039146;28;45375;-62
2022/08/27 05:55:40;;;;;;;;;8.33;5.67;;;;;19.72;58.11;101167.66;5038802;28;47325;-63
2022/08/27 05:58:07;;;;;;;;;5.00;5.00;;;;;19.66;57.84;101153.09;5039027;28;45457;-61
2022/08/27 06:03:20;;;;;;;;;7.33;3.00;;;;;19.81;57.46;101154.84;5039242;28;45344;-63
2022/08/27 06:05:46;;;;;;;;;6.67;6.67;;;;;19.75;57.86;101173.50;5053917;28;48326;-62
2022/08/27 06:08:11;;;;;;;;;4.00;4.00;;;;;19.65;58.06;101178.38;5037512;28;45307;-63
2022/08/27 06:10:40;;;;;;;;;7.33;5.00;;;;;19.69;57.99;101168.03;5038581;28;45507;-62
2022/08/27 06:13:06;;;;;;;;;6.67;5.00;;;;;19.49;58.72;101178.59;5038862;28;45513;-63
2022/08/27 06:15:31;;;;;;;;;8.67;5.33;;;;;19.57;58.58;101181.19;5038121;28;46513;-61
2022/08/27 06:17:56;;;;;;;;;5.67;5.67;;;;;19.71;57.92;101179.47;5038506;28;45642;-63
2022/08/27 06:20:22;;;;;;;;;5.33;4.33;;;;;19.69;58.38;101176.97;5038426;28;45236;-63
2022/08/27 06:22:48;;;;;;;;;4.67;4.00;;;;;19.77;57.94;101176.00;5038667;28;45507;-62
2022/08/27 06:25:13;;;;;;;;;3.33;3.33;;;;;19.25;57.56;101093.53;5053602;28;47402;-63
2022/08/27 06:27:39;;;;;;;;;5.00;5.00;;;;;19.57;57.65;101132.66;5038108;28;45241;-63
2022/08/27 06:30:04;;;;;;;;;6.33;5.33;;;;;20.16;57.13;101180.06;5038514;28;45482;-63
2022/08/27 06:32:30;;;;;;;;;3.00;1.00;;;;;20.77;55.37;101181.09;5038435;28;45533;-63
2022/08/27 06:34:55;;;;;;;;;7.33;6.33;;;;;21.48;53.14;101186.19;5038085;28;46661;-64
2022/08/27 06:37:20;;;;;;;;;7.00;5.00;;;;;21.99;51.64;101183.72;5038201;28;46332;-63
2022/08/27 06:39:46;;;;;;;;;7.00;6.00;;;;;22.26;50.57;101178.34;5038152;28;47812;-63
2022/08/27 06:42:12;;;;;;;;;6.33;6.33;;;;;22.49;49.78;101186.03;5038483;28;45273;-63
2022/08/27 06:44:37;;;;;;;;;6.00;6.00;;;;;22.94;48.79;101184.25;5038016;28;45751;-62
2022/08/27 06:47:03;;;;;;;;;5.33;4.00;;;;;23.15;47.86;101189.38;5037975;28;45538;-62
2022/08/27 06:49:29;;;;;;;;;5.33;5.33;;;;;23.26;47.62;101149.88;5038428;28;45502;-62
2022/08/27 06:51:55;;;;;;;;;6.00;5.00;;;;;23.95;46.10;101174.25;5038412;28;45245;-63
2022/08/27 06:54:20;;;;;;;;;7.67;5.67;;;;;24.24;45.26;101139.34;5037020;28;46393;-63
2022/08/27 06:56:48;;;;;;;;;6.33;5.00;;;;;24.71;44.00;101183.19;5037959;28;45526;-62
2022/08/27 06:59:15;;;;;;;;;7.67;7.67;;;;;24.79;43.37;101185.59;5038195;28;45300;-64
2022/08/27 07:01:44;;;;;;;;;4.33;4.33;;;;;24.56;43.98;101121.84;5038355;28;45511;-64
2022/08/27 07:04:15;;;;;;;;;7.00;7.00;;;;;25.52;42.28;101201.00;5037928;28;47845;-63
2022/08/27 07:06:40;;;;;;;;;6.67;6.67;;;;;25.71;41.36;101184.41;5038112;28;45347;-63
2022/08/27 07:09:06;;;;;;;;;9.00;7.00;;;;;26.17;40.30;101171.91;5038329;28;45418;-63
2022/08/27 07:11:32;;;;;;;;;5.33;5.33;;;;;26.87;39.18;101203.78;5037835;28;45428;-64
2022/08/27 07:13:58;;;;;;;;;8.00;6.00;;;;;26.97;38.74;101204.78;5037788;28;45758;-64
2022/08/27 07:16:25;;;;;;;;;6.33;6.33;;;;;27.26;38.60;101202.97;5034908;28;45490;-63
2022/08/27 07:18:53;;;;;;;;;10.67;5.67;;;;;27.55;37.65;101206.50;5026607;28;45498;-64
2022/08/27 07:21:19;;;;;;;;;7.67;7.00;;;;;27.83;36.96;101213.03;5034608;28;45557;-64
2022/08/27 07:23:45;;;;;;;;;7.00;5.00;;;;;27.97;37.21;101206.19;5023267;28;46073;-63
2022/08/27 07:26:13;;;;;;;;;7.00;7.00;;;;;28.16;36.24;101199.38;5026168;28;45321;-65
2022/08/27 07:28:40;;;;;;;;;8.00;6.00;;;;;27.84;36.06;101106.25;5037511;28;45265;-65
2022/08/27 07:31:08;;;;;;;;;8.00;5.00;;;;;28.76;35.38;101195.91;5025622;28;45506;-64
2022/08/27 07:33:38;;;;;;;;;6.33;6.33;;;;;29.49;34.56;101182.00;5040758;28;47331;-64
2022/08/27 07:36:05;;;;;;;;;7.00;7.00;;;;;29.75;33.55;101192.13;5018178;28;45525;-65
2022/08/27 07:38:30;;;;;;;;;7.67;7.00;;;;;29.87;33.77;101184.56;5029382;28;45446;-62
2022/08/27 07:40:56;;;;;;;;;6.00;6.00;;;;;29.25;34.46;101203.38;5028352;28;45648;-64
2022/08/27 07:46:05;;;;;;;;;7.00;7.00;;;;;29.16;34.85;101208.47;5024865;28;45356;-62
2022/08/27 07:48:33;;;;;;;;;8.00;6.33;;;;;29.46;34.39;101205.28;5031015;28;45177;-63
2022/08/27 07:51:02;;;;;;;;;7.00;7.00;;;;;29.73;33.29;101205.25;5026663;28;45635;-64
2022/08/27 07:53:27;;;;;;;;;5.00;5.00;;;;;30.32;33.27;101196.97;5018076;28;46480;-66
2022/08/27 07:55:53;;;;;;;;;7.67;5.00;;;;;30.68;31.69;101200.81;5016971;28;45320;-64
2022/08/27 07:58:18;;;;;;;;;4.00;4.00;;;;;30.80;31.53;101187.66;5017670;28;45541;-63
2022/08/27 08:00:44;;;;;;;;;6.33;5.33;;;;;31.26;30.68;101225.50;5023687;28;48222;-64
2022/08/27 08:03:11;;;;;;;;;7.00;7.00;;;;;31.47;30.56;101221.72;5023806;28;45649;-63
2022/08/27 08:05:43;;;;;;;;;7.00;6.00;;;;;31.57;29.82;101218.16;5037011;28;45221;-64
2022/08/27 08:08:09;;;;;;;;;6.00;6.00;;;;;31.80;30.00;101208.56;5037240;28;45217;-63
2022/08/27 08:10:35;;;;;;;;;6.00;6.00;;;;;31.13;30.44;101180.94;5037184;28;45425;-63
2022/08/27 08:13:02;;;;;;;;;5.00;5.00;;;;;30.97;30.76;101208.59;5035369;28;46423;-63
2022/08/27 08:15:28;;;;;;;;;10.33;9.00;;;;;31.04;30.86;101195.47;5039426;28;45967;-64
2022/08/27 08:17:53;;;;;;;;;6.00;6.00;;;;;30.80;31.42;101211.53;5016787;28;45513;-63
2022/08/27 08:20:19;;;;;;;;;8.33;5.00;;;;;30.89;30.73;101223.69;5020820;28;45618;-63
2022/08/27 08:22:45;;;;;;;;;6.33;5.67;;;;;31.09;30.73;101229.25;5035571;28;45930;-63
2022/08/27 08:25:12;;;;;;;;;5.67;5.67;;;;;31.00;30.72;101217.13;5036951;28;45509;-64
2022/08/27 08:27:38;;;;;;;;;5.67;5.67;;;;;30.93;31.01;101216.56;5036720;28;45344;-65
2022/08/27 08:30:03;;;;;;;;;6.00;5.33;;;;;31.01;30.47;101216.03;5033247;28;45458;-64
2022/08/27 08:32:29;;;;;;;;;10.00;8.33;;;;;31.09;30.98;101222.94;5025262;28;48218;-62
2022/08/27 08:34:55;;;;;;;;;7.00;6.00;;;;;30.95;30.18;101156.69;5028445;28;48629;-64
2022/08/27 08:37:20;;;;;;;;;5.33;5.33;;;;;31.30;30.07;101201.88;5031814;28;45293;-62
2022/08/27 08:39:46;;;;;;;;;6.33;5.67;;;;;31.68;30.02;101209.66;5015191;28;45267;-63
2022/08/27 08:42:26;;;;;;;;;4.00;4.00;;;;;32.00;29.44;101206.66;5020203;28;46440;-64
2022/08/27 08:44:53;;;;;;;;;5.33;5.33;;;;;32.51;28.69;101194.78;5023966;28;45504;-63
2022/08/27 08:47:23;;;;;;;;;6.00;6.00;;;;;32.38;27.24;101128.22;5027252;28;45407;-64
2022/08/27 08:49:52;;;;;;;;;5.33;4.00;;;;;32.77;28.04;101203.78;5033090;28;45967;-64
2022/08/27 08:52:39;;;;;;;;;5.00;5.00;;;;;32.51;27.44;101200.28;5034171;28;45719;-63
2022/08/27 08:55:04;;;;;;;;;5.00;5.00;;;;;32.66;26.73;101203.00;5026880;28;45489;-64
2022/08/27 08:57:35;;;;;;;;;6.67;5.00;;;;;32.70;26.48;101190.31;5016528;28;45304;-64
2022/08/27 09:00:14;;;;;;;;;6.33;5.67;;;;;32.54;27.22;101200.56;5016167;28;45352;-64
2022/08/27 09:02:51;;;;;;;;;6.00;6.00;;;;;32.42;27.87;101200.03;5017860;28;47569;-64
2022/08/27 09:05:16;;;;;;;;;7.00;6.33;;;;;32.19;28.18;101203.34;5016941;28;45213;-64
2022/08/27 09:08:01;;;;;;;;;6.33;6.33;;;;;32.40;28.54;101187.66;5027553;28;45426;-64
2022/08/27 09:10:51;;;;;;;;;9.00;7.00;;;;;32.70;27.93;101206.84;5015345;28;45609;-63
2022/08/27 09:13:40;;;;;;;;;4.33;4.33;;;;;32.42;27.77;101212.97;5015872;28;46473;-62
2022/08/27 09:16:07;;;;;;;;;3.00;3.00;;;;;32.86;26.00;101208.47;5016331;28;45249;-63
2022/08/27 09:18:36;;;;;;;;;3.00;3.00;;;;;32.33;26.78;101133.72;5019531;28;45510;-63
2022/08/27 09:21:31;;;;;;;;;3.33;3.00;;;;;33.54;25.83;101214.19;5019695;28;45487;-64
2022/08/27 09:24:01;;;;;;;;;4.00;4.00;;;;;33.54;25.21;101156.28;5019606;28;46625;-64
2022/08/27 09:26:28;;;;;;;;;8.67;5.00;;;;;35.05;23.55;101209.47;5019276;28;45251;-64
2022/08/27 09:29:15;;;;;;;;;4.33;4.00;;;;;36.02;23.10;101208.84;5019714;28;45527;-64
2022/08/27 09:31:46;;;;;;;;;6.00;4.33;;;;;36.92;21.39;101190.00;5019871;28;45505;-63
2022/08/27 09:34:12;;;;;;;;;6.00;4.33;;;;;37.07;21.03;101209.91;5019086;28;46440;-63
2022/08/27 09:37:10;;;;;;;;;6.33;6.33;;;;;37.90;19.79;101216.03;5017670;28;45869;-64
2022/08/27 09:40:08;;;;;;;;;5.33;3.00;;;;;39.14;18.33;101212.38;5019209;28;45464;-64
2022/08/27 09:42:45;;;;;;;;;7.67;4.67;;;;;39.48;18.27;101198.47;5019589;28;45356;-64
2022/08/27 09:45:17;;;;;;;;;5.00;5.00;;;;;40.40;17.43;101224.06;5019043;28;46533;-64
2022/08/27 09:47:49;;;;;;;;;4.00;3.33;;;;;40.77;16.25;101220.78;5019187;28;45416;-64
2022/08/27 09:50:23;;;;;;;;;5.33;4.33;;;;;40.57;16.83;101217.59;5018746;28;45257;-63
2022/08/27 09:52:53;;;;;;;;;3.00;3.00;;;;;41.27;16.54;101221.69;5019536;28;45202;-65
2022/08/27 09:55:42;;;;;;;;;5.33;5.33;;;;;40.12;17.24;101220.88;5018749;28;46866;-65
2022/08/27 09:58:17;;;;;;;;;5.00;4.33;;;;;39.45;17.91;101215.84;5018998;28;45434;-64
2022/08/27 10:00:43;;;;;;;;;5.00;5.00;;;;;40.04;17.37;101210.56;5019000;28;45464;-64
2022/08/27 10:03:10;;;;;;;;;3.33;3.33;;;;;40.46;16.09;101210.78;5018983;28;45620;-64
2022/08/27 10:05:49;;;;;;;;;3.00;3.00;;;;;40.39;16.22;101210.47;5018648;28;46611;-65
2022/08/27 10:08:34;;;;;;;;;5.33;5.00;;;;;40.41;16.24;101202.59;5034424;28;45413;-64
2022/08/27 10:11:08;;;;;;;;;4.67;4.00;;;;;40.41;15.97;101213.75;5019056;28;45364;-65
2022/08/27 10:13:52;;;;;;;;;4.00;1.67;;;;;39.12;17.21;101211.88;5019037;28;45603;-65
2022/08/27 10:16:32;;;;;;;;;6.00;4.33;;;;;37.92;18.88;101207.38;5017043;28;47696;-65
2022/08/27 10:19:01;;;;;;;;;5.67;4.00;;;;;37.25;19.23;101198.97;5017393;28;45500;-64
2022/08/27 10:21:29;;;;;;;;;6.00;6.00;;;;;36.91;19.89;101207.75;5018993;28;45344;-63
2022/08/27 10:24:27;;;;;;;;;3.67;3.67;;;;;36.30;20.91;101206.97;5019120;28;45262;-64
2022/08/27 10:27:08;;;;;;;;;3.67;3.67;;;;;34.80;22.24;101201.44;5018517;28;46910;-64
2022/08/27 10:30:18;;;;;;;;;5.00;5.00;;;;;33.67;22.95;101203.63;5017315;28;45550;-64
2022/08/27 10:33:05;;;;;;;;;5.00;5.00;;;;;32.16;25.23;101196.47;5019010;28;45213;-64
2022/08/27 10:35:45;;;;;;;;;6.33;6.00;;;;;31.71;25.67;101203.59;5018691;28;45258;-63
2022/08/27 10:38:21;;;;;;;;;5.00;5.00;;;;;30.95;27.40;101203.38;5018205;28;46973;-66
2022/08/27 10:40:58;;;;;;;;;4.00;3.00;;;;;30.82;26.77;101204.69;5018383;28;45327;-64
2022/08/27 10:43:44;;;;;;;;;3.00;3.00;;;;;30.54;26.74;101200.41;5018636;28;45511;-64
2022/08/27 10:46:41;;;;;;;;;4.33;4.33;;;;;30.09;27.86;101206.44;5018830;28;45215;-64
2022/08/27 10:49:25;;;;;;;;;4.00;4.00;;;;;29.80;28.39;101194.91;5018085;28;46433;-63
2022/08/27 10:52:16;;;;;;;;;3.00;3.00;;;;;28.87;28.59;101113.97;5018215;28;45503;-65
2022/08/27 10:55:14;;;;;;;;;6.33;3.67;;;;;28.67;30.02;101194.69;5018436;28;45225;-64
2022/08/27 10:57:53;;;;;;;;;4.33;3.00;;;;;27.95;31.34;101194.66;5021663;28;45444;-64
2022/08/27 11:00:21;;;;;;;;;5.67;4.00;;;;;27.55;32.16;101192.03;5017825;28;45976;-63
2022/08/27 11:03:01;;;;;;;;;6.67;6.00;;;;;27.28;32.76;101175.44;5016613;28;45919;-65
2022/08/27 11:05:35;;;;;;;;;10.33;5.67;;;;;27.26;32.65;101180.31;5018106;28;45411;-67
2022/08/27 11:08:12;;;;;;;;;5.00;5.00;;;;;26.84;33.21;101182.44;5018171;28;45419;-65
2022/08/27 11:10:46;;;;;;;;;11.00;11.00;;;;;26.82;33.26;101179.09;5017822;28;46042;-65
2022/08/27 11:13:45;;;;;;;;;7.33;6.00;;;;;26.63;33.28;101173.81;5017840;28;45312;-63
2022/08/27 11:16:19;;;;;;;;;7.33;5.67;;;;;26.61;33.00;101175.91;5017800;28;45335;-63
2022/08/27 11:19:22;;;;;;;;;7.00;7.00;;;;;26.33;33.09;101099.47;5018251;28;45379;-65
2022/08/27 11:22:03;;;;;;;;;6.67;6.00;;;;;26.77;32.45;101173.53;5020651;28;46180;-63
2022/08/27 11:24:34;;;;;;;;;5.00;5.00;;;;;26.88;32.25;101162.59;5018056;28;45240;-64
2022/08/27 11:27:04;;;;;;;;;7.67;6.00;;;;;26.90;31.87;101171.38;5017790;28;45416;-64
2022/08/27 11:29:36;;;;;;;;;7.67;7.67;;;;;25.93;32.39;101096.66;5018013;28;45499;-63
2022/08/27 11:32:22;;;;;;;;;6.00;6.00;;;;;26.27;32.78;101160.41;5017677;28;45725;-64
2022/08/27 11:34:47;;;;;;;;;6.00;6.00;;;;;26.37;32.21;101166.94;5017656;28;45213;-64
2022/08/27 11:37:15;;;;;;;;;6.33;5.00;;;;;26.38;32.68;101154.97;5017763;28;45801;-65
2022/08/27 11:39:57;;;;;;;;;6.33;6.33;;;;;26.43;32.35;101153.41;5017282;28;45258;-64
2022/08/27 11:42:40;;;;;;;;;7.00;6.00;;;;;26.44;32.10;101149.66;5017699;28;46720;-62